Time;durP1;ratioP1;P1;durP2;ratioP2;P2;SDS_P1;SDS_P2;PMS_P1;PMS_P2;Temp;Humidity;BMP_temperature;BMP_pressure;BME280_temperature;BME280_humidity;BME280_pressure;Samples;Min_cycle;Max_cycle;Signal;HPM_P1;HPM_P2
2023/03/10 00:00:18;;;;;;;14.32;2.87;;;;;;;;;;778562;180;920477;-62
2023/03/10 00:02:48;;;;;;;7.23;2.63;;;;;;;;;;776528;180;918113;-64
2023/03/10 00:05:10;;;;;;;4.57;2.03;;;;;;;;;;773422;181;917311;-64
2023/03/10 00:07:36;;;;;;;15.90;2.73;;;;;;;;;;774410;180;816459;-63
2023/03/10 00:10:01;;;;;;;4.93;2.33;;;;;;;;;;773274;180;816952;-64
2023/03/10 00:12:27;;;;;;;5.57;2.33;;;;;;;;;;770789;180;918723;-63
2023/03/10 00:14:53;;;;;;;3.40;1.87;;;;;;;;;;770391;180;917313;-64
2023/03/10 00:17:19;;;;;;;3.70;2.57;;;;;;;;;;781438;178;811582;-63
2023/03/10 00:19:45;;;;;;;5.90;2.87;;;;;;;;;;770226;181;921694;-63
2023/03/10 00:22:11;;;;;;;6.07;2.80;;;;;;;;;;773046;181;918306;-64
2023/03/10 00:24:37;;;;;;;5.60;1.53;;;;;;;;;;776892;180;914338;-64
2023/03/10 00:27:02;;;;;;;5.97;2.23;;;;;;;;;;765634;181;916998;-63
2023/03/10 00:29:28;;;;;;;5.30;2.70;;;;;;;;;;765315;180;919140;-65
2023/03/10 00:31:55;;;;;;;3.30;1.70;;;;;;;;;;779039;181;811537;-64
2023/03/10 00:34:21;;;;;;;5.20;2.73;;;;;;;;;;767551;181;918848;-64
2023/03/10 00:36:46;;;;;;;8.37;2.43;;;;;;;;;;770674;181;919577;-65
2023/03/10 00:39:12;;;;;;;3.47;1.98;;;;;;;;;;775523;181;817856;-64
2023/03/10 00:41:38;;;;;;;5.07;1.80;;;;;;;;;;766436;179;918656;-63
2023/03/10 00:44:04;;;;;;;5.10;2.30;;;;;;;;;;763712;182;925163;-63
2023/03/10 00:46:32;;;;;;;4.73;1.83;;;;;;;;;;770679;180;916393;-64
2023/03/10 00:48:56;;;;;;;5.20;2.20;;;;;;;;;;772035;180;818113;-64
2023/03/10 00:51:22;;;;;;;4.90;2.30;;;;;;;;;;775299;181;630199;-65
2023/03/10 00:53:47;;;;;;;4.93;2.80;;;;;;;;;;770658;180;918900;-65
2023/03/10 00:56:13;;;;;;;3.50;2.10;;;;;;;;;;774773;181;915404;-62
2023/03/10 00:58:39;;;;;;;7.53;2.67;;;;;;;;;;768237;181;913940;-62
2023/03/10 01:01:05;;;;;;;5.17;2.00;;;;;;;;;;767103;181;919317;-63
2023/03/10 01:03:31;;;;;;;6.60;1.93;;;;;;;;;;776385;180;916535;-63
2023/03/10 01:05:57;;;;;;;6.90;3.00;;;;;;;;;;770561;179;917118;-62
2023/03/10 01:08:22;;;;;;;5.27;2.87;;;;;;;;;;770336;181;919105;-62
2023/03/10 01:10:48;;;;;;;5.87;2.13;;;;;;;;;;772603;180;917861;-64
2023/03/10 01:13:14;;;;;;;6.77;2.67;;;;;;;;;;775220;181;915211;-63
2023/03/10 01:15:40;;;;;;;2.90;1.87;;;;;;;;;;770285;181;919209;-62
2023/03/10 01:18:06;;;;;;;5.57;2.27;;;;;;;;;;767588;181;919299;-65
2023/03/10 01:20:32;;;;;;;6.80;2.90;;;;;;;;;;765623;179;919786;-64
2023/03/10 01:22:58;;;;;;;7.33;2.70;;;;;;;;;;772324;181;917252;-64
2023/03/10 01:25:23;;;;;;;5.40;2.83;;;;;;;;;;763260;180;917256;-64
2023/03/10 01:27:49;;;;;;;4.37;2.20;;;;;;;;;;776426;180;922013;-62
2023/03/10 01:30:15;;;;;;;4.97;2.40;;;;;;;;;;770517;181;919646;-62
2023/03/10 01:32:41;;;;;;;11.83;2.60;;;;;;;;;;766399;182;919293;-63
2023/03/10 01:35:07;;;;;;;5.50;2.83;;;;;;;;;;773233;180;920127;-64
2023/03/10 01:37:33;;;;;;;3.77;2.00;;;;;;;;;;780998;178;918412;-65
2023/03/10 01:39:59;;;;;;;4.27;2.10;;;;;;;;;;768592;181;919159;-63
2023/03/10 01:42:25;;;;;;;5.13;2.27;;;;;;;;;;770560;181;926445;-62
2023/03/10 01:44:56;;;;;;;6.67;2.70;;;;;;;;;;774053;182;884232;-63
2023/03/10 01:47:22;;;;;;;4.40;1.97;;;;;;;;;;771096;181;917343;-62
2023/03/10 01:49:48;;;;;;;6.37;2.67;;;;;;;;;;766933;181;918674;-63
2023/03/10 01:52:15;;;;;;;3.47;1.83;;;;;;;;;;771878;180;918113;-63
2023/03/10 01:54:41;;;;;;;4.77;2.10;;;;;;;;;;763551;180;919211;-63
2023/03/10 01:57:07;;;;;;;6.27;2.23;;;;;;;;;;775094;180;785740;-63
2023/03/10 01:59:33;;;;;;;4.50;2.27;;;;;;;;;;772587;181;918794;-63
2023/03/10 02:01:59;;;;;;;3.50;2.10;;;;;;;;;;775777;180;816640;-62
2023/03/10 02:04:27;;;;;;;6.60;2.50;;;;;;;;;;772961;180;817744;-63
2023/03/10 02:06:53;;;;;;;4.77;2.30;;;;;;;;;;771688;179;917292;-64
2023/03/10 02:09:18;;;;;;;6.10;2.20;;;;;;;;;;772236;181;916013;-62
2023/03/10 02:11:44;;;;;;;8.87;2.77;;;;;;;;;;767436;180;945392;-64
2023/03/10 02:14:10;;;;;;;4.82;2.25;;;;;;;;;;771312;180;930191;-62
2023/03/10 02:16:36;;;;;;;5.40;2.33;;;;;;;;;;771715;181;921210;-62
2023/03/10 02:19:02;;;;;;;3.55;1.85;;;;;;;;;;774085;179;1018222;-64
2023/03/10 02:21:41;;;;;;;5.30;2.53;;;;;;;;;;773962;178;916822;-63
2023/03/10 02:24:07;;;;;;;4.93;1.90;;;;;;;;;;768235;180;918449;-64
2023/03/10 02:26:33;;;;;;;4.30;2.10;;;;;;;;;;770695;179;919078;-64
2023/03/10 02:28:59;;;;;;;7.00;1.90;;;;;;;;;;767540;182;919976;-64
2023/03/10 02:31:25;;;;;;;4.50;2.30;;;;;;;;;;772359;181;919415;-66
2023/03/10 02:33:50;;;;;;;3.80;2.10;;;;;;;;;;772434;181;922286;-64
2023/03/10 02:36:17;;;;;;;7.07;2.13;;;;;;;;;;778399;181;916934;-64
2023/03/10 02:38:43;;;;;;;3.80;1.70;;;;;;;;;;770639;181;920225;-64
2023/03/10 02:41:25;;;;;;;2.75;1.98;;;;;;;;;;764314;180;921469;-65
2023/03/10 02:43:50;;;;;;;6.50;2.17;;;;;;;;;;771527;179;816638;-65
2023/03/10 02:46:16;;;;;;;6.23;2.03;;;;;;;;;;775397;181;915113;-64
2023/03/10 02:48:42;;;;;;;3.90;2.13;;;;;;;;;;770169;181;913503;-65
2023/03/10 02:51:08;;;;;;;3.57;1.70;;;;;;;;;;770833;180;870072;-66
2023/03/10 02:53:34;;;;;;;5.47;2.70;;;;;;;;;;770942;180;920092;-66
2023/03/10 02:56:00;;;;;;;4.00;1.63;;;;;;;;;;768516;182;921600;-64
2023/03/10 02:58:25;;;;;;;6.13;1.87;;;;;;;;;;768897;180;920011;-64
2023/03/10 03:00:51;;;;;;;6.00;2.33;;;;;;;;;;768278;181;920379;-65
2023/03/10 03:03:17;;;;;;;3.47;1.60;;;;;;;;;;771043;182;919329;-65
2023/03/10 03:05:43;;;;;;;4.53;1.83;;;;;;;;;;765918;181;919321;-64
2023/03/10 03:08:09;;;;;;;4.90;2.10;;;;;;;;;;769932;181;918241;-64
2023/03/10 03:10:35;;;;;;;3.58;2.00;;;;;;;;;;772261;182;917493;-65
2023/03/10 03:13:00;;;;;;;3.30;2.07;;;;;;;;;;772368;181;818193;-65
2023/03/10 03:15:26;;;;;;;7.60;2.90;;;;;;;;;;770712;180;919306;-66
2023/03/10 03:17:53;;;;;;;6.40;2.55;;;;;;;;;;775483;181;816720;-65
2023/03/10 03:20:20;;;;;;;7.90;2.40;;;;;;;;;;777284;179;1021616;-65
2023/03/10 03:22:45;;;;;;;9.75;3.17;;;;;;;;;;772279;179;920489;-63
2023/03/10 03:25:11;;;;;;;4.43;2.00;;;;;;;;;;771969;180;919525;-64
2023/03/10 03:27:37;;;;;;;4.03;2.37;;;;;;;;;;776303;181;919237;-64
2023/03/10 03:30:02;;;;;;;3.20;2.28;;;;;;;;;;769219;182;816774;-65
2023/03/10 03:32:28;;;;;;;4.60;2.30;;;;;;;;;;773003;181;919242;-66
2023/03/10 03:34:54;;;;;;;6.23;2.07;;;;;;;;;;776801;179;917312;-66
2023/03/10 03:37:20;;;;;;;4.07;2.47;;;;;;;;;;771235;180;907780;-65
2023/03/10 03:39:46;;;;;;;4.13;1.97;;;;;;;;;;775472;180;911620;-64
2023/03/10 03:42:12;;;;;;;4.78;2.55;;;;;;;;;;773184;182;915112;-64
2023/03/10 03:44:37;;;;;;;8.37;3.20;;;;;;;;;;769417;181;871753;-63
2023/03/10 03:47:04;;;;;;;8.90;3.93;;;;;;;;;;768184;181;917919;-63
2023/03/10 03:49:29;;;;;;;4.53;2.80;;;;;;;;;;768287;180;920718;-65
2023/03/10 03:51:55;;;;;;;3.70;2.93;;;;;;;;;;775604;181;918660;-63
2023/03/10 03:54:21;;;;;;;7.43;3.97;;;;;;;;;;770907;181;919136;-64
2023/03/10 03:56:47;;;;;;;4.80;3.20;;;;;;;;;;768496;181;918891;-67
2023/03/10 03:59:13;;;;;;;9.20;6.37;;;;;;;;;;776373;181;885767;-64
2023/03/10 04:01:39;;;;;;;22.62;12.05;;;;;;;;;;770516;180;920381;-66
2023/03/10 04:04:05;;;;;;;20.47;8.60;;;;;;;;;;770007;181;900315;-64
2023/03/10 04:06:31;;;;;;;19.07;11.97;;;;;;;;;;775106;181;917945;-66
2023/03/10 04:08:56;;;;;;;36.23;19.17;;;;;;;;;;767621;181;919040;-67
2023/03/10 04:11:22;;;;;;;44.97;23.30;;;;;;;;;;767431;181;919690;-64
2023/03/10 04:13:48;;;;;;;36.13;18.70;;;;;;;;;;769502;181;918837;-64
2023/03/10 04:16:14;;;;;;;30.33;13.83;;;;;;;;;;775591;181;817059;-65
2023/03/10 04:18:40;;;;;;;10.63;5.40;;;;;;;;;;759629;182;920605;-63
2023/03/10 04:21:06;;;;;;;8.90;2.97;;;;;;;;;;762000;181;921571;-64
2023/03/10 04:23:31;;;;;;;11.20;3.00;;;;;;;;;;774237;181;822795;-64
2023/03/10 04:25:57;;;;;;;4.50;2.87;;;;;;;;;;768092;181;920507;-67
2023/03/10 04:28:23;;;;;;;5.77;3.50;;;;;;;;;;771727;181;920804;-64
2023/03/10 04:30:49;;;;;;;6.20;4.17;;;;;;;;;;775941;180;909260;-65
2023/03/10 04:33:15;;;;;;;14.40;5.67;;;;;;;;;;772726;180;916087;-64
2023/03/10 04:35:41;;;;;;;8.90;5.87;;;;;;;;;;769747;181;918899;-63
2023/03/10 04:38:06;;;;;;;10.75;4.80;;;;;;;;;;773484;180;920457;-65
2023/03/10 04:40:32;;;;;;;10.80;5.80;;;;;;;;;;764396;181;918709;-64
2023/03/10 04:42:58;;;;;;;9.53;5.93;;;;;;;;;;765100;182;918910;-65
2023/03/10 04:45:24;;;;;;;13.53;5.87;;;;;;;;;;762445;180;917886;-65
2023/03/10 04:47:50;;;;;;;7.93;4.97;;;;;;;;;;773235;181;919643;-68
2023/03/10 04:50:16;;;;;;;9.52;5.82;;;;;;;;;;771916;181;1024166;-65
2023/03/10 04:52:42;;;;;;;8.40;5.83;;;;;;;;;;771788;180;919938;-64
2023/03/10 04:55:08;;;;;;;8.90;4.87;;;;;;;;;;776542;180;887776;-66
2023/03/10 04:57:34;;;;;;;8.90;5.50;;;;;;;;;;771904;179;916261;-66
2023/03/10 04:59:59;;;;;;;8.07;4.43;;;;;;;;;;771323;180;916208;-64
2023/03/10 05:02:25;;;;;;;8.83;4.03;;;;;;;;;;775898;181;921346;-63
2023/03/10 05:04:51;;;;;;;8.40;3.67;;;;;;;;;;772132;180;823258;-63
2023/03/10 05:07:17;;;;;;;7.50;5.20;;;;;;;;;;763066;182;918569;-63
2023/03/10 05:09:43;;;;;;;7.97;4.40;;;;;;;;;;773094;180;920313;-64
2023/03/10 05:12:09;;;;;;;17.23;5.93;;;;;;;;;;772362;181;917640;-64
2023/03/10 05:14:34;;;;;;;9.73;6.00;;;;;;;;;;768701;180;815541;-67
2023/03/10 05:17:00;;;;;;;9.63;7.27;;;;;;;;;;768555;180;880944;-63
2023/03/10 05:19:27;;;;;;;11.13;6.50;;;;;;;;;;778498;179;737503;-66
2023/03/10 05:21:52;;;;;;;6.67;4.23;;;;;;;;;;771896;180;629145;-66
2023/03/10 05:24:18;;;;;;;9.10;6.23;;;;;;;;;;767236;183;632221;-64
2023/03/10 05:26:44;;;;;;;6.13;3.50;;;;;;;;;;771093;181;621272;-65
2023/03/10 05:29:10;;;;;;;12.43;4.27;;;;;;;;;;767384;179;637887;-66
2023/03/10 05:31:35;;;;;;;5.30;3.73;;;;;;;;;;776581;180;632891;-66
2023/03/10 05:34:01;;;;;;;12.83;5.03;;;;;;;;;;767322;181;913802;-66
2023/03/10 05:36:27;;;;;;;6.30;3.80;;;;;;;;;;767662;179;916512;-65
2023/03/10 05:38:53;;;;;;;7.53;4.17;;;;;;;;;;769328;182;916261;-66
2023/03/10 05:41:19;;;;;;;7.40;4.00;;;;;;;;;;773511;180;817578;-64
2023/03/10 05:43:45;;;;;;;8.50;5.00;;;;;;;;;;771026;180;906110;-67
2023/03/10 05:46:10;;;;;;;5.83;3.47;;;;;;;;;;766960;179;814258;-64
2023/03/10 05:48:36;;;;;;;10.90;7.15;;;;;;;;;;767134;181;1022371;-63
2023/03/10 05:51:03;;;;;;;9.77;6.43;;;;;;;;;;779034;181;918972;-64
2023/03/10 05:53:29;;;;;;;6.73;3.77;;;;;;;;;;772226;181;919352;-64
2023/03/10 05:55:55;;;;;;;9.53;6.53;;;;;;;;;;770731;180;913093;-66
2023/03/10 05:58:21;;;;;;;10.07;7.22;;;;;;;;;;772278;180;922495;-64
2023/03/10 06:00:47;;;;;;;11.07;8.10;;;;;;;;;;776332;178;919476;-66
2023/03/10 06:03:12;;;;;;;7.60;5.27;;;;;;;;;;769300;180;917082;-64
2023/03/10 06:05:38;;;;;;;5.00;3.97;;;;;;;;;;769905;181;919851;-63
2023/03/10 06:08:04;;;;;;;6.03;4.30;;;;;;;;;;777291;181;918332;-66
2023/03/10 06:10:30;;;;;;;5.07;3.70;;;;;;;;;;769361;181;922464;-64
2023/03/10 06:12:56;;;;;;;6.43;3.60;;;;;;;;;;771068;181;923109;-66
2023/03/10 06:15:23;;;;;;;6.27;2.83;;;;;;;;;;777435;180;919108;-64
2023/03/10 06:17:49;;;;;;;4.40;2.67;;;;;;;;;;769895;180;917839;-64
2023/03/10 06:20:15;;;;;;;9.90;2.47;;;;;;;;;;763159;181;902666;-67
2023/03/10 06:22:41;;;;;;;6.53;2.60;;;;;;;;;;772134;181;915741;-62
2023/03/10 06:25:07;;;;;;;8.60;3.10;;;;;;;;;;758791;183;915574;-62
2023/03/10 06:27:33;;;;;;;3.60;2.43;;;;;;;;;;770019;180;922480;-64
2023/03/10 06:29:59;;;;;;;4.27;2.93;;;;;;;;;;767844;181;920174;-65
2023/03/10 06:32:24;;;;;;;4.68;2.80;;;;;;;;;;770652;179;922222;-63
2023/03/10 06:34:50;;;;;;;5.10;2.63;;;;;;;;;;769934;181;917391;-63
2023/03/10 06:37:16;;;;;;;3.85;2.60;;;;;;;;;;768148;181;922756;-62
2023/03/10 06:39:42;;;;;;;3.00;2.00;;;;;;;;;;769059;181;916154;-63
2023/03/10 06:42:08;;;;;;;4.20;1.77;;;;;;;;;;770882;180;923878;-63
2023/03/10 06:44:34;;;;;;;5.77;2.53;;;;;;;;;;770470;181;918550;-64
2023/03/10 06:47:00;;;;;;;3.63;2.53;;;;;;;;;;777388;180;717601;-63
2023/03/10 06:49:29;;;;;;;5.60;2.30;;;;;;;;;;772621;181;815994;-63
2023/03/10 06:51:54;;;;;;;5.90;2.20;;;;;;;;;;770479;179;822768;-62
2023/03/10 06:54:21;;;;;;;3.67;2.50;;;;;;;;;;768157;179;916292;-63
2023/03/10 06:56:46;;;;;;;6.50;2.67;;;;;;;;;;774069;179;917530;-64
2023/03/10 06:59:12;;;;;;;4.37;2.20;;;;;;;;;;771044;181;916672;-62
2023/03/10 07:01:38;;;;;;;3.20;2.20;;;;;;;;;;767307;181;898744;-66
2023/03/10 07:04:04;;;;;;;7.10;2.50;;;;;;;;;;775356;181;919312;-64
2023/03/10 07:06:29;;;;;;;5.63;1.70;;;;;;;;;;768951;181;919327;-63
2023/03/10 07:08:55;;;;;;;3.97;1.80;;;;;;;;;;770340;180;908547;-64
2023/03/10 07:11:21;;;;;;;4.97;2.10;;;;;;;;;;775371;180;919720;-63
2023/03/10 07:13:47;;;;;;;7.30;2.70;;;;;;;;;;774029;178;816672;-63
2023/03/10 07:16:13;;;;;;;3.70;2.00;;;;;;;;;;768358;179;922565;-66
2023/03/10 07:18:39;;;;;;;4.53;2.30;;;;;;;;;;772003;179;917128;-64
2023/03/10 07:21:07;;;;;;;4.10;2.50;;;;;;;;;;776993;180;916103;-66
2023/03/10 07:23:33;;;;;;;3.67;2.47;;;;;;;;;;771090;181;916489;-64
2023/03/10 07:25:58;;;;;;;4.60;2.47;;;;;;;;;;767957;180;847524;-64
2023/03/10 07:28:24;;;;;;;5.28;2.10;;;;;;;;;;774617;180;917517;-64
2023/03/10 07:30:51;;;;;;;4.37;2.37;;;;;;;;;;770403;180;920910;-64
2023/03/10 07:33:16;;;;;;;4.27;2.50;;;;;;;;;;773583;181;918834;-65
2023/03/10 07:35:42;;;;;;;3.90;2.50;;;;;;;;;;773862;180;919371;-63
2023/03/10 07:38:07;;;;;;;5.87;2.77;;;;;;;;;;775254;180;731374;-67
2023/03/10 07:40:33;;;;;;;5.90;2.63;;;;;;;;;;769320;180;918864;-66
2023/03/10 07:42:59;;;;;;;6.73;2.77;;;;;;;;;;765606;179;973312;-65
2023/03/10 07:45:25;;;;;;;6.20;2.80;;;;;;;;;;771863;181;917513;-64
2023/03/10 07:47:51;;;;;;;4.90;2.62;;;;;;;;;;768983;181;920377;-65
2023/03/10 07:50:17;;;;;;;7.20;3.33;;;;;;;;;;772990;180;922442;-63
2023/03/10 07:52:43;;;;;;;5.53;3.10;;;;;;;;;;770966;181;915649;-64
2023/03/10 07:55:09;;;;;;;9.40;4.00;;;;;;;;;;768719;181;919037;-64
2023/03/10 07:57:34;;;;;;;6.73;3.50;;;;;;;;;;770459;181;918386;-66
2023/03/10 08:00:00;;;;;;;6.40;3.93;;;;;;;;;;773125;180;911361;-64
2023/03/10 08:02:26;;;;;;;7.20;3.37;;;;;;;;;;767835;180;928994;-65
2023/03/10 08:04:52;;;;;;;7.23;4.30;;;;;;;;;;764772;181;918687;-65
2023/03/10 08:07:18;;;;;;;8.23;4.17;;;;;;;;;;765405;180;916780;-66
2023/03/10 08:09:48;;;;;;;8.80;3.37;;;;;;;;;;776601;180;919205;-64
2023/03/10 08:12:14;;;;;;;7.00;4.53;;;;;;;;;;767627;179;918906;-65
2023/03/10 08:14:39;;;;;;;6.33;4.10;;;;;;;;;;768157;181;919915;-64
2023/03/10 08:17:05;;;;;;;5.40;3.90;;;;;;;;;;773853;181;900896;-64
2023/03/10 08:19:31;;;;;;;9.30;4.17;;;;;;;;;;769923;178;919118;-64
2023/03/10 08:21:57;;;;;;;9.07;4.53;;;;;;;;;;772275;180;919400;-67
2023/03/10 08:24:23;;;;;;;16.60;5.43;;;;;;;;;;774251;180;815976;-67
2023/03/10 08:26:49;;;;;;;8.73;4.83;;;;;;;;;;763582;183;816931;-66
2023/03/10 08:29:14;;;;;;;6.57;4.07;;;;;;;;;;769301;181;916100;-67
2023/03/10 08:31:40;;;;;;;17.77;5.43;;;;;;;;;;773430;180;921591;-67
2023/03/10 08:34:06;;;;;;;8.23;4.20;;;;;;;;;;774952;181;918999;-65
2023/03/10 08:36:32;;;;;;;7.70;5.13;;;;;;;;;;772914;180;919612;-65
2023/03/10 08:38:59;;;;;;;9.53;4.70;;;;;;;;;;773678;180;818343;-66
2023/03/10 08:41:24;;;;;;;6.67;4.47;;;;;;;;;;773990;181;892985;-67
2023/03/10 08:43:50;;;;;;;6.37;3.87;;;;;;;;;;767489;181;815910;-66
2023/03/10 08:46:16;;;;;;;6.57;4.27;;;;;;;;;;766532;181;917308;-66
2023/03/10 08:48:42;;;;;;;6.97;4.70;;;;;;;;;;774420;181;919461;-64
2023/03/10 08:51:08;;;;;;;6.40;4.33;;;;;;;;;;765738;181;919736;-66
2023/03/10 08:53:34;;;;;;;7.70;4.70;;;;;;;;;;769322;180;917652;-65
2023/03/10 08:56:00;;;;;;;9.10;5.70;;;;;;;;;;770229;180;918322;-65
2023/03/10 08:58:26;;;;;;;9.40;5.40;;;;;;;;;;769601;180;922331;-67
2023/03/10 09:00:52;;;;;;;8.27;5.15;;;;;;;;;;767236;181;916862;-68
2023/03/10 09:03:18;;;;;;;9.40;5.13;;;;;;;;;;769830;181;918813;-66
2023/03/10 09:05:43;;;;;;;7.33;4.70;;;;;;;;;;775003;181;820197;-67
2023/03/10 09:08:09;;;;;;;11.87;5.03;;;;;;;;;;770862;181;894746;-66
2023/03/10 09:10:35;;;;;;;11.27;5.60;;;;;;;;;;770169;181;914642;-67
2023/03/10 09:13:01;;;;;;;9.00;5.80;;;;;;;;;;774447;181;816953;-64
2023/03/10 09:15:27;;;;;;;7.77;5.80;;;;;;;;;;769879;180;881134;-66
2023/03/10 09:17:54;;;;;;;8.43;5.57;;;;;;;;;;770591;181;919513;-68
2023/03/10 09:20:21;;;;;;;9.00;5.37;;;;;;;;;;768346;181;914678;-65
2023/03/10 09:22:44;;;;;;;8.77;5.67;;;;;;;;;;775635;181;816464;-67
2023/03/10 09:25:10;;;;;;;8.63;5.40;;;;;;;;;;769864;181;913362;-65
2023/03/10 09:27:36;;;;;;;9.30;5.50;;;;;;;;;;770791;181;911659;-65
2023/03/10 09:30:02;;;;;;;11.93;6.33;;;;;;;;;;775719;180;852672;-65
2023/03/10 09:32:28;;;;;;;8.83;5.57;;;;;;;;;;771418;180;933856;-67
2023/03/10 09:34:54;;;;;;;10.30;6.37;;;;;;;;;;770240;180;945625;-65
2023/03/10 09:37:19;;;;;;;8.40;5.33;;;;;;;;;;775438;181;920893;-67
2023/03/10 09:39:46;;;;;;;8.70;6.20;;;;;;;;;;772200;180;919516;-69
2023/03/10 09:42:13;;;;;;;8.37;6.13;;;;;;;;;;770559;180;920094;-67
2023/03/10 09:44:42;;;;;;;8.15;5.10;;;;;;;;;;770633;180;918376;-68
2023/03/10 09:47:23;;;;;;;14.93;6.60;;;;;;;;;;774549;181;915695;-68
2023/03/10 09:49:49;;;;;;;11.60;6.87;;;;;;;;;;767721;179;837733;-68
2023/03/10 09:52:30;;;;;;;11.10;7.07;;;;;;;;;;765971;180;919000;-69
2023/03/10 09:55:00;;;;;;;14.90;6.20;;;;;;;;;;772602;180;919414;-68
2023/03/10 09:57:25;;;;;;;7.53;5.60;;;;;;;;;;767109;181;919293;-68
2023/03/10 09:59:51;;;;;;;8.30;5.13;;;;;;;;;;773381;179;908096;-65
2023/03/10 10:02:17;;;;;;;9.77;5.10;;;;;;;;;;770248;181;816395;-65
2023/03/10 10:04:43;;;;;;;7.75;5.03;;;;;;;;;;771960;180;920204;-64
2023/03/10 10:07:11;;;;;;;7.57;5.00;;;;;;;;;;772681;180;916974;-66
2023/03/10 10:09:41;;;;;;;16.77;5.80;;;;;;;;;;769314;181;917005;-69
2023/03/10 10:12:10;;;;;;;9.07;4.90;;;;;;;;;;769161;181;919890;-65
2023/03/10 10:14:36;;;;;;;10.00;4.60;;;;;;;;;;770529;180;921915;-65
2023/03/10 10:17:18;;;;;;;8.80;5.33;;;;;;;;;;775101;181;919476;-68
2023/03/10 10:19:44;;;;;;;7.10;5.30;;;;;;;;;;766489;181;916108;-67
2023/03/10 10:22:27;;;;;;;8.50;6.00;;;;;;;;;;767563;180;918521;-65
2023/03/10 10:24:54;;;;;;;8.93;5.40;;;;;;;;;;770073;181;916175;-65
2023/03/10 10:27:20;;;;;;;7.00;4.53;;;;;;;;;;766593;180;925616;-66
2023/03/10 10:29:46;;;;;;;5.90;4.37;;;;;;;;;;767521;181;919404;-69
2023/03/10 10:32:12;;;;;;;5.75;3.65;;;;;;;;;;775154;180;921254;-66
2023/03/10 10:34:38;;;;;;;8.80;4.80;;;;;;;;;;769908;181;922282;-69
2023/03/10 10:37:19;;;;;;;6.20;4.23;;;;;;;;;;769532;179;917150;-65
2023/03/10 10:39:45;;;;;;;6.63;4.10;;;;;;;;;;765363;180;823653;-68
2023/03/10 10:42:22;;;;;;;5.90;3.53;;;;;;;;;;772969;180;930082;-69
2023/03/10 10:44:46;;;;;;;9.70;3.43;;;;;;;;;;771398;180;818330;-68
2023/03/10 10:47:16;;;;;;;9.83;4.70;;;;;;;;;;768134;180;922923;-66
2023/03/10 10:49:43;;;;;;;9.73;3.62;;;;;;;;;;768566;181;877236;-66
2023/03/10 10:52:07;;;;;;;8.40;3.57;;;;;;;;;;774255;180;815942;-65
2023/03/10 10:54:34;;;;;;;4.97;2.80;;;;;;;;;;768542;181;867412;-66
2023/03/10 10:57:00;;;;;;;6.47;3.30;;;;;;;;;;767188;181;1025316;-68
2023/03/10 10:59:28;;;;;;;7.50;3.30;;;;;;;;;;771022;180;919244;-68
2023/03/10 11:01:54;;;;;;;6.97;3.47;;;;;;;;;;769892;181;911315;-65
2023/03/10 11:04:20;;;;;;;5.77;3.63;;;;;;;;;;769196;181;919227;-68
2023/03/10 11:06:46;;;;;;;5.33;3.90;;;;;;;;;;770717;181;917711;-68
2023/03/10 11:09:14;;;;;;;6.57;3.57;;;;;;;;;;775401;181;906408;-67
2023/03/10 11:11:40;;;;;;;6.00;3.37;;;;;;;;;;771792;181;919067;-65
2023/03/10 11:14:09;;;;;;;9.30;4.03;;;;;;;;;;771113;180;953087;-65
2023/03/10 11:16:35;;;;;;;4.82;3.45;;;;;;;;;;772988;180;913643;-65
2023/03/10 11:19:01;;;;;;;6.50;4.43;;;;;;;;;;771738;180;916382;-67
2023/03/10 11:21:28;;;;;;;10.23;4.90;;;;;;;;;;770300;180;914380;-68
2023/03/10 11:23:59;;;;;;;6.20;4.07;;;;;;;;;;770712;181;914845;-64
2023/03/10 11:26:31;;;;;;;7.77;4.30;;;;;;;;;;775363;180;913931;-65
2023/03/10 11:28:59;;;;;;;7.63;4.50;;;;;;;;;;774071;179;919786;-69
2023/03/10 11:31:27;;;;;;;5.90;4.00;;;;;;;;;;767645;181;920104;-69
2023/03/10 11:33:54;;;;;;;6.47;4.50;;;;;;;;;;770191;180;905870;-68
2023/03/10 11:36:23;;;;;;;7.13;4.50;;;;;;;;;;774030;181;920374;-69
2023/03/10 11:38:49;;;;;;;6.47;4.40;;;;;;;;;;772172;180;919566;-66
2023/03/10 11:41:15;;;;;;;7.70;5.50;;;;;;;;;;771610;179;920799;-69
2023/03/10 11:43:43;;;;;;;9.10;4.10;;;;;;;;;;770097;181;918209;-66
2023/03/10 11:46:10;;;;;;;10.27;4.60;;;;;;;;;;778380;180;888197;-71
2023/03/10 11:48:36;;;;;;;8.60;5.20;;;;;;;;;;767916;181;920782;-68
2023/03/10 11:51:02;;;;;;;8.87;5.60;;;;;;;;;;769131;179;919155;-66
2023/03/10 11:53:43;;;;;;;9.27;4.60;;;;;;;;;;777233;178;917502;-66
2023/03/10 11:56:09;;;;;;;8.30;5.73;;;;;;;;;;768188;181;919742;-69
2023/03/10 11:58:41;;;;;;;10.27;5.53;;;;;;;;;;771527;181;809800;-67
2023/03/10 12:01:07;;;;;;;8.10;5.60;;;;;;;;;;771427;180;816663;-67
2023/03/10 12:03:34;;;;;;;8.23;5.43;;;;;;;;;;772263;180;816468;-69
2023/03/10 12:06:00;;;;;;;9.10;6.53;;;;;;;;;;776166;180;818008;-70
2023/03/10 12:08:25;;;;;;;14.00;5.97;;;;;;;;;;767741;180;920702;-68
2023/03/10 12:10:51;;;;;;;10.20;6.63;;;;;;;;;;766994;181;922454;-69
2023/03/10 12:13:21;;;;;;;8.97;6.10;;;;;;;;;;773581;179;918585;-70
2023/03/10 12:15:46;;;;;;;8.83;5.83;;;;;;;;;;768544;180;912762;-68
2023/03/10 12:18:12;;;;;;;9.70;6.80;;;;;;;;;;772842;180;819849;-67
2023/03/10 12:20:38;;;;;;;11.43;6.77;;;;;;;;;;768316;181;872785;-67
2023/03/10 12:23:21;;;;;;;9.03;5.80;;;;;;;;;;773089;181;715846;-66
2023/03/10 12:25:47;;;;;;;13.37;6.07;;;;;;;;;;772704;183;815384;-68
2023/03/10 12:28:23;;;;;;;7.00;5.60;;;;;;;;;;768233;181;918769;-65
2023/03/10 12:30:50;;;;;;;9.67;5.87;;;;;;;;;;768395;181;1020354;-69
2023/03/10 12:33:21;;;;;;;10.07;6.60;;;;;;;;;;767577;181;922276;-70
2023/03/10 12:35:47;;;;;;;10.63;7.00;;;;;;;;;;773915;181;846143;-67
2023/03/10 12:38:33;;;;;;;8.43;5.50;;;;;;;;;;769606;180;917614;-67
2023/03/10 12:40:59;;;;;;;8.70;5.85;;;;;;;;;;760834;180;911614;-66
2023/03/10 12:43:31;;;;;;;11.13;7.30;;;;;;;;;;766909;180;917614;-70
2023/03/10 12:45:57;;;;;;;9.30;6.27;;;;;;;;;;769412;180;910020;-70
2023/03/10 12:48:23;;;;;;;8.90;6.53;;;;;;;;;;775890;181;918275;-67
2023/03/10 12:50:48;;;;;;;7.80;6.17;;;;;;;;;;768409;181;920951;-66
2023/03/10 12:53:24;;;;;;;9.83;7.40;;;;;;;;;;769639;181;882474;-71
2023/03/10 12:55:56;;;;;;;8.13;6.10;;;;;;;;;;768650;181;915408;-69
2023/03/10 12:58:22;;;;;;;9.53;6.23;;;;;;;;;;775091;181;915869;-74
2023/03/10 13:00:49;;;;;;;11.13;7.10;;;;;;;;;;770159;181;919153;-75
2023/03/10 13:03:21;;;;;;;9.07;7.07;;;;;;;;;;770791;181;919987;-75
2023/03/10 13:05:52;;;;;;;11.43;5.70;;;;;;;;;;768627;180;919318;-74
2023/03/10 13:08:19;;;;;;;10.00;6.93;;;;;;;;;;774048;180;917334;-76
2023/03/10 13:10:45;;;;;;;11.10;6.23;;;;;;;;;;771850;179;818780;-74
2023/03/10 13:13:11;;;;;;;7.90;5.93;;;;;;;;;;767844;180;926321;-74
2023/03/10 13:15:36;;;;;;;7.67;5.90;;;;;;;;;;769485;181;913031;-73
2023/03/10 13:18:08;;;;;;;10.40;6.50;;;;;;;;;;776138;181;816842;-74
2023/03/10 13:20:34;;;;;;;10.73;6.17;;;;;;;;;;773352;180;917445;-72
2023/03/10 13:23:00;;;;;;;15.03;7.20;;;;;;;;;;773366;181;813251;-73
2023/03/10 13:25:26;;;;;;;8.37;6.17;;;;;;;;;;775081;180;791035;-72
2023/03/10 13:27:53;;;;;;;11.03;6.70;;;;;;;;;;770613;181;817404;-72
2023/03/10 13:30:18;;;;;;;10.30;6.00;;;;;;;;;;771468;181;917790;-72
2023/03/10 13:32:43;;;;;;;11.80;7.23;;;;;;;;;;770316;180;917700;-72
2023/03/10 13:35:13;;;;;;;10.73;7.10;;;;;;;;;;773206;180;874538;-72
2023/03/10 13:37:39;;;;;;;12.87;7.77;;;;;;;;;;772266;181;903230;-73
2023/03/10 13:40:06;;;;;;;10.90;7.27;;;;;;;;;;771318;181;917139;-73
2023/03/10 13:42:32;;;;;;;12.67;6.93;;;;;;;;;;773705;179;918156;-72
2023/03/10 13:44:57;;;;;;;10.70;7.63;;;;;;;;;;771111;179;815797;-72
2023/03/10 13:47:23;;;;;;;10.70;7.00;;;;;;;;;;772476;181;638701;-71
2023/03/10 13:49:50;;;;;;;10.80;7.40;;;;;;;;;;773917;181;632700;-72
2023/03/10 13:52:16;;;;;;;7.13;6.40;;;;;;;;;;774720;179;799696;-72
2023/03/10 13:54:42;;;;;;;11.10;7.00;;;;;;;;;;773762;180;816530;-72
2023/03/10 13:57:13;;;;;;;9.03;7.10;;;;;;;;;;767574;181;918020;-66
2023/03/10 13:59:39;;;;;;;12.13;7.50;;;;;;;;;;776538;180;816479;-67
2023/03/10 14:02:05;;;;;;;7.85;7.05;;;;;;;;;;770127;180;919192;-72
2023/03/10 14:04:38;;;;;;;10.00;6.77;;;;;;;;;;770111;181;916638;-67
2023/03/10 14:07:05;;;;;;;11.02;7.57;;;;;;;;;;766108;179;1427544;-67
2023/03/10 14:09:31;;;;;;;10.50;7.50;;;;;;;;;;772309;181;813038;-67
2023/03/10 14:11:57;;;;;;;10.23;7.00;;;;;;;;;;770550;180;926188;-72
2023/03/10 14:14:25;;;;;;;14.30;9.37;;;;;;;;;;771352;180;904547;-67
2023/03/10 14:16:51;;;;;;;10.53;6.73;;;;;;;;;;773973;178;819568;-72
2023/03/10 14:19:23;;;;;;;12.17;7.90;;;;;;;;;;761896;183;795676;-71
2023/03/10 14:21:49;;;;;;;13.40;8.10;;;;;;;;;;774780;180;817347;-72